createdAt,value
2023-07-11T00:00:55.612Z,95910.63
2023-07-11T00:03:28.177Z,95912.25
2023-07-11T00:06:06.381Z,95911.56
2023-07-11T00:08:38.553Z,95904.72
2023-07-11T00:11:10.973Z,95904.81
2023-07-11T00:13:42.658Z,95905.25
2023-07-11T00:16:15.824Z,95911.97
2023-07-11T00:18:47.494Z,95919.47
2023-07-11T00:21:19.065Z,95914.13
2023-07-11T00:23:50.598Z,95918.47
2023-07-11T00:26:22.148Z,95911.28
2023-07-11T00:28:53.729Z,95914.09
2023-07-11T00:31:25.405Z,95911.91
2023-07-11T00:33:57.019Z,95908.44
2023-07-11T00:36:28.591Z,95908.94
2023-07-11T00:39:00.125Z,95908.19
2023-07-11T00:41:32.788Z,95902.09
2023-07-11T00:44:04.472Z,95907.94
2023-07-11T00:46:35.985Z,95907.19
2023-07-11T00:49:09.669Z,95908.50
2023-07-11T00:51:46.433Z,95907.38
2023-07-11T00:54:20.792Z,95898.13
2023-07-11T00:56:52.770Z,95898.25
2023-07-11T00:59:24.535Z,95896.03
2023-07-11T01:02:15.162Z,95894.50
2023-07-11T01:04:46.874Z,95889.63
2023-07-11T01:07:22.484Z,95885.03
2023-07-11T01:09:54.157Z,95882.41
2023-07-11T01:12:26.118Z,95880.91
2023-07-11T01:14:57.594Z,95886.38
2023-07-11T01:17:34.873Z,95881.03
2023-07-11T01:20:09.533Z,95876.81
2023-07-11T01:22:41.131Z,95876.88
2023-07-11T01:25:15.515Z,95873.84
2023-07-11T01:27:48.930Z,95877.00
2023-07-11T01:30:24.165Z,95877.09
2023-07-11T01:32:55.843Z,95871.72
2023-07-11T01:35:27.453Z,95869.56
2023-07-11T01:37:59.211Z,95871.50
2023-07-11T01:40:30.760Z,95861.47
2023-07-11T01:43:03.052Z,95860.72
2023-07-11T01:45:34.578Z,95858.13
2023-07-11T01:48:06.338Z,95854.72
2023-07-11T01:50:37.976Z,95851.34
2023-07-11T01:53:09.665Z,95857.94
2023-07-11T01:55:41.285Z,95854.13
2023-07-11T01:58:12.811Z,95845.75
2023-07-11T02:00:44.304Z,95851.59
2023-07-11T02:03:15.907Z,95852.09
2023-07-11T02:05:47.533Z,95851.00
2023-07-11T02:08:19.274Z,95853.03
2023-07-11T02:10:50.801Z,95845.00
2023-07-11T02:13:22.371Z,95837.34
2023-07-11T02:15:54.000Z,95840.50
2023-07-11T02:18:25.695Z,95832.03
2023-07-11T02:20:57.991Z,95830.94
2023-07-11T02:23:29.546Z,95827.47
2023-07-11T02:26:01.139Z,95831.34
2023-07-11T02:28:32.719Z,95827.50
2023-07-11T02:31:04.344Z,95825.22
2023-07-11T02:33:35.871Z,95822.16
2023-07-11T02:36:07.663Z,95827.22
2023-07-11T02:38:39.186Z,95819.94
2023-07-11T02:41:10.748Z,95819.63
2023-07-11T02:43:42.301Z,95823.53
2023-07-11T02:46:15.647Z,95818.53
2023-07-11T02:48:47.293Z,95815.13
2023-07-11T02:51:19.077Z,95818.69
2023-07-11T02:53:51.075Z,95804.03
2023-07-11T02:56:22.568Z,95811.81
2023-07-11T02:58:54.203Z,95808.75
2023-07-11T03:01:25.939Z,95813.84
2023-07-11T03:03:57.529Z,95807.72
2023-07-11T03:06:30.046Z,95799.59
2023-07-11T03:09:01.581Z,95801.97
2023-07-11T03:11:33.130Z,95799.78
2023-07-11T03:14:04.721Z,95799.41
2023-07-11T03:16:36.344Z,95795.94
2023-07-11T03:19:07.864Z,95795.63
2023-07-11T03:21:39.422Z,95787.91
2023-07-11T03:24:11.394Z,95790.69
2023-07-11T03:26:45.046Z,95788.50
2023-07-11T03:29:16.701Z,95783.56
2023-07-11T03:31:48.234Z,95783.97
2023-07-11T03:34:19.754Z,95785.19
2023-07-11T03:36:51.358Z,95775.53
2023-07-11T03:39:22.955Z,95777.91
2023-07-11T03:41:54.528Z,95769.06
2023-07-11T03:44:26.047Z,95773.72
2023-07-11T03:46:57.662Z,95764.41
2023-07-11T03:49:29.188Z,95772.91
2023-07-11T03:52:00.715Z,95767.47
2023-07-11T03:54:32.222Z,95768.56
2023-07-11T03:57:03.840Z,95760.78
2023-07-11T03:59:35.408Z,95762.31
2023-07-11T04:02:07.027Z,95759.59
2023-07-11T04:04:38.553Z,95755.69
2023-07-11T04:07:10.236Z,95758.75
2023-07-11T04:09:41.959Z,95758.69
2023-07-11T04:12:13.521Z,95759.00
2023-07-11T04:14:45.212Z,95759.34
2023-07-11T04:17:16.798Z,95756.22
2023-07-11T04:19:48.390Z,95761.28
2023-07-11T04:22:20.748Z,95757.00
2023-07-11T04:24:52.258Z,95759.63
2023-07-11T04:27:26.055Z,95753.75
2023-07-11T04:29:57.585Z,95754.47
2023-07-11T04:32:30.076Z,95757.84
2023-07-11T04:35:01.638Z,95756.56
2023-07-11T04:37:33.340Z,95756.47
2023-07-11T04:40:05.385Z,95755.56
2023-07-11T04:42:36.865Z,95758.94
2023-07-11T04:45:09.975Z,95755.19
2023-07-11T04:47:41.910Z,95760.09
2023-07-11T04:50:13.373Z,95764.28
2023-07-11T04:52:45.432Z,95760.94
2023-07-11T04:55:17.047Z,95757.41
2023-07-11T04:57:48.926Z,95754.59
2023-07-11T05:00:20.462Z,95754.50
2023-07-11T05:02:52.025Z,95758.66
2023-07-11T05:05:23.711Z,95756.19
2023-07-11T05:07:55.233Z,95759.56
2023-07-11T05:10:26.798Z,95759.38
2023-07-11T05:12:58.340Z,95762.34
2023-07-11T05:15:29.975Z,95759.06
2023-07-11T05:18:01.679Z,95764.31
2023-07-11T05:20:33.327Z,95759.44
2023-07-11T05:23:04.849Z,95764.34
2023-07-11T05:25:38.626Z,95751.34
2023-07-11T05:28:10.145Z,95751.59
2023-07-11T05:30:41.709Z,95751.72
2023-07-11T05:33:13.523Z,95753.22
2023-07-11T05:36:03.942Z,95750.19
2023-07-11T05:38:35.831Z,95755.19
2023-07-11T05:41:07.371Z,95752.94
2023-07-11T05:43:38.915Z,95752.28
2023-07-11T05:46:10.869Z,95755.56
2023-07-11T05:48:42.634Z,95754.91
2023-07-11T05:51:18.059Z,95753.91
2023-07-11T05:53:52.774Z,95750.34
2023-07-11T05:56:24.962Z,95746.53
2023-07-11T05:58:56.536Z,95743.16
2023-07-11T06:01:31.145Z,95738.03
2023-07-11T06:04:04.211Z,95745.53
2023-07-11T06:06:42.760Z,95742.88
2023-07-11T06:09:20.048Z,95744.16
2023-07-11T06:11:51.681Z,95740.31
2023-07-11T06:14:24.323Z,95736.91
2023-07-11T06:16:56.181Z,95732.75
2023-07-11T06:19:27.798Z,95733.31
2023-07-11T06:21:59.476Z,95738.50
2023-07-11T06:24:31.071Z,95730.84
2023-07-11T06:27:02.818Z,95730.91
2023-07-11T06:29:34.434Z,95733.69
2023-07-11T06:32:06.777Z,95728.41
2023-07-11T06:34:38.394Z,95728.16
2023-07-11T06:37:09.910Z,95733.34
2023-07-11T06:39:41.603Z,95728.41
2023-07-11T06:42:13.495Z,95732.81
2023-07-11T06:44:44.859Z,95727.88
2023-07-11T06:47:16.458Z,95728.81
2023-07-11T06:49:48.323Z,95728.09
2023-07-11T06:52:19.773Z,95732.97
2023-07-11T06:54:51.530Z,95721.47
2023-07-11T06:57:23.146Z,95732.09
2023-07-11T06:59:54.664Z,95729.09
2023-07-11T07:02:26.469Z,95731.09
2023-07-11T07:04:58.130Z,95739.75
2023-07-11T07:07:29.827Z,95735.66
2023-07-11T07:10:01.681Z,95728.72
2023-07-11T07:12:33.179Z,95723.91
2023-07-11T07:15:05.097Z,95722.69
2023-07-11T07:17:36.561Z,95718.13
2023-07-11T07:20:08.917Z,95722.72
2023-07-11T07:22:40.579Z,95717.09
2023-07-11T07:25:24.070Z,95718.16
2023-07-11T07:27:56.141Z,95714.97
2023-07-11T07:30:27.747Z,95708.44
2023-07-11T07:32:59.456Z,95712.06
2023-07-11T07:35:30.963Z,95702.56
2023-07-11T07:38:04.157Z,95704.66
2023-07-11T07:40:35.828Z,95700.88
2023-07-11T07:43:07.530Z,95700.56
2023-07-11T07:45:39.023Z,95695.97
2023-07-11T07:48:10.854Z,95701.88
2023-07-11T07:50:42.581Z,95700.06
2023-07-11T07:53:15.230Z,95699.00
2023-07-11T07:55:46.835Z,95708.38
2023-07-11T07:58:30.375Z,95706.09
2023-07-11T08:01:10.130Z,95702.53
2023-07-11T08:03:42.504Z,95690.22
2023-07-11T08:06:17.476Z,95689.31
2023-07-11T08:08:50.973Z,95693.72
2023-07-11T08:11:22.757Z,95690.47
2023-07-11T08:13:59.907Z,95686.94
2023-07-11T08:16:34.297Z,95692.25
2023-07-11T08:19:07.717Z,95680.38
2023-07-11T08:21:39.672Z,95684.28
2023-07-11T08:24:11.288Z,95685.59
2023-07-11T08:26:43.775Z,95669.38
2023-07-11T08:29:28.539Z,95671.28
2023-07-11T08:32:02.044Z,95668.03
2023-07-11T08:34:33.751Z,95661.59
2023-07-11T08:37:05.247Z,95668.03
2023-07-11T08:39:38.075Z,95674.78
2023-07-11T08:42:33.515Z,95666.50
2023-07-11T08:45:16.226Z,95670.81
2023-07-11T08:48:14.688Z,95668.47
2023-07-11T08:51:10.884Z,95660.25
2023-07-11T08:53:49.690Z,95663.13
2023-07-11T08:56:41.119Z,95666.66
2023-07-11T08:59:56.293Z,95658.97
2023-07-11T09:02:52.501Z,95662.38
2023-07-11T09:05:34.210Z,95657.28
2023-07-11T09:08:05.969Z,95648.84
2023-07-11T09:10:59.317Z,95632.38
2023-07-11T09:13:55.833Z,95639.16
2023-07-11T09:16:33.462Z,95629.66
2023-07-11T09:19:20.043Z,95626.88
2023-07-11T09:22:07.782Z,95628.63
2023-07-11T09:25:17.699Z,95624.69
2023-07-11T09:28:13.150Z,95618.63
2023-07-11T09:30:56.720Z,95613.56
2023-07-11T09:33:39.856Z,95611.41
2023-07-11T09:36:25.238Z,95619.34
2023-07-11T09:39:15.557Z,95618.97
2023-07-11T09:41:56.996Z,95612.50
2023-07-11T09:44:28.637Z,95607.16
2023-07-11T09:47:06.010Z,95604.00
2023-07-11T09:49:38.606Z,95601.34
2023-07-11T09:52:14.892Z,95602.03
2023-07-11T09:57:22.249Z,95598.59
2023-07-11T10:00:12.228Z,95589.09
2023-07-11T10:02:53.063Z,95594.78
2023-07-11T10:05:25.778Z,95592.34
2023-07-11T10:08:14.459Z,95590.75
2023-07-11T10:10:54.483Z,95602.00
2023-07-11T10:13:37.942Z,95588.25
2023-07-11T10:16:19.306Z,95587.47
2023-07-11T10:18:52.635Z,95581.22
2023-07-11T10:21:31.811Z,95587.75
2023-07-11T10:24:04.086Z,95585.25
2023-07-11T10:26:39.563Z,95574.66
2023-07-11T10:29:25.203Z,95576.56
2023-07-11T10:32:02.086Z,95573.94
2023-07-11T10:34:44.905Z,95570.16
2023-07-11T10:37:57.747Z,95568.19
2023-07-11T10:40:34.088Z,95568.63
2023-07-11T10:43:27.648Z,95555.78
2023-07-11T10:46:07.360Z,95555.03
2023-07-11T10:48:55.813Z,95553.72
2023-07-11T10:51:40.034Z,95547.97
2023-07-11T10:54:39.232Z,95542.06
2023-07-11T10:57:44.117Z,95546.66
2023-07-11T11:00:20.173Z,95550.09
2023-07-11T11:03:09.239Z,95540.03
2023-07-11T11:06:06.877Z,95528.97
2023-07-11T11:09:00.878Z,95530.00
2023-07-11T11:12:04.263Z,95521.59
2023-07-11T11:15:08.932Z,95513.72
2023-07-11T11:18:01.929Z,95519.56
2023-07-11T11:21:19.556Z,95506.84
2023-07-11T11:24:02.418Z,95508.16
2023-07-11T11:26:52.434Z,95505.69
2023-07-11T11:29:29.712Z,95517.00
2023-07-11T11:32:10.434Z,95509.81
2023-07-11T11:35:24.640Z,95504.59
2023-07-11T11:38:20.837Z,95490.03
2023-07-11T11:40:59.883Z,95490.00
2023-07-11T11:43:35.671Z,95488.31
2023-07-11T11:51:36.860Z,95473.63
2023-07-11T11:54:20.379Z,95472.97
2023-07-11T11:56:59.426Z,95478.53
2023-07-11T11:59:32.752Z,95476.78
2023-07-11T12:02:16.188Z,95470.59
2023-07-11T12:05:18.368Z,95469.28
2023-07-11T12:08:26.592Z,95467.91
2023-07-11T12:11:21.495Z,95458.84
2023-07-11T12:14:26.866Z,95454.09
2023-07-11T12:16:59.429Z,95446.28
2023-07-11T12:19:41.334Z,95444.06
2023-07-11T12:22:15.034Z,95438.19
2023-07-11T12:24:59.385Z,95432.34
2023-07-11T12:27:30.844Z,95435.78
2023-07-11T12:30:23.317Z,95430.53
2023-07-11T12:32:58.842Z,95429.78
2023-07-11T12:35:37.144Z,95429.13
2023-07-11T12:38:15.619Z,95427.47
2023-07-11T12:41:13.312Z,95424.78
2023-07-11T12:43:48.199Z,95410.94
2023-07-11T12:46:28.667Z,95408.78
2023-07-11T12:49:01.234Z,95410.41
2023-07-11T12:51:39.301Z,95402.72
2023-07-11T12:54:10.792Z,95398.44
2023-07-11T12:56:45.511Z,95398.97
2023-07-11T12:59:29.554Z,95391.03
2023-07-11T13:02:05.496Z,95387.38
2023-07-11T13:05:04.683Z,95393.91
2023-07-11T13:07:37.610Z,95375.41
2023-07-11T13:10:25.017Z,95377.94
2023-07-11T13:12:57.098Z,95384.13
2023-07-11T13:15:29.035Z,95378.81
2023-07-11T13:18:01.008Z,95381.59
2023-07-11T13:20:36.973Z,95374.13
2023-07-11T13:23:11.320Z,95374.75
2023-07-11T13:25:43.818Z,95378.06
2023-07-11T13:28:23.084Z,95380.38
2023-07-11T13:30:59.636Z,95383.34
2023-07-11T13:38:53.701Z,95369.31
2023-07-11T13:41:32.349Z,95367.34
2023-07-11T13:44:14.358Z,95364.94
2023-07-11T13:46:46.804Z,95367.34
2023-07-11T13:49:35.036Z,95361.69
2023-07-11T13:52:18.427Z,95359.47
2023-07-11T13:54:56.428Z,95353.22
2023-07-11T13:57:28.028Z,95355.38
2023-07-11T14:00:11.436Z,95347.16
2023-07-11T14:02:46.608Z,95343.84
2023-07-11T14:05:26.894Z,95339.78
2023-07-11T14:08:01.751Z,95342.56
2023-07-11T14:10:33.345Z,95343.97
2023-07-11T14:13:12.732Z,95340.03
2023-07-11T14:15:44.465Z,95342.00
2023-07-11T14:18:16.178Z,95339.41
2023-07-11T14:20:47.729Z,95339.59
2023-07-11T14:23:24.891Z,95332.34
2023-07-11T14:25:56.749Z,95327.81
2023-07-11T14:28:28.760Z,95324.03
2023-07-11T14:31:02.850Z,95331.50
2023-07-11T14:33:34.931Z,95325.63
2023-07-11T14:36:06.838Z,95320.94
2023-07-11T14:38:38.392Z,95315.34
2023-07-11T14:41:12.898Z,95314.38
2023-07-11T14:43:44.651Z,95314.00
2023-07-11T14:46:16.203Z,95303.72
2023-07-11T14:48:47.772Z,95301.34
2023-07-11T14:51:19.322Z,95289.34
2023-07-11T14:53:51.473Z,95280.94
2023-07-11T14:58:58.264Z,95278.47
2023-07-11T15:01:29.906Z,95280.53
2023-07-11T15:12:05.420Z,95273.31
2023-07-11T15:15:23.284Z,95271.88
2023-07-11T15:17:32.807Z,95272.91
2023-07-11T15:20:10.041Z,95268.44
2023-07-11T15:22:44.143Z,95268.69
2023-07-11T15:25:23.242Z,95263.03
2023-07-11T15:27:55.115Z,95255.38
2023-07-11T15:30:27.725Z,95263.78
2023-07-11T15:32:59.390Z,95257.22
2023-07-11T15:35:31.252Z,95253.69
2023-07-11T15:38:02.892Z,95236.44
2023-07-11T15:40:34.501Z,95241.81
2023-07-11T15:43:06.076Z,95242.31
2023-07-11T15:45:38.644Z,95243.25
2023-07-11T15:48:11.353Z,95244.63
2023-07-11T15:50:43.438Z,95233.34
2023-07-11T15:53:15.056Z,95230.66
2023-07-11T15:55:46.801Z,95226.34
2023-07-11T15:58:26.298Z,95231.91
2023-07-11T16:00:57.959Z,95235.69
2023-07-11T16:03:30.565Z,95222.34
2023-07-11T16:06:02.473Z,95229.91
2023-07-11T16:08:37.561Z,95231.88
2023-07-11T16:11:10.910Z,95228.31
2023-07-11T16:13:43.417Z,95208.97
2023-07-11T16:16:18.689Z,95229.25
2023-07-11T16:18:50.680Z,95220.81
2023-07-11T16:21:22.240Z,95222.13
2023-07-11T16:23:53.812Z,95217.09
2023-07-11T16:26:28.997Z,95222.53
2023-07-11T16:29:01.477Z,95207.66
2023-07-11T16:31:33.135Z,95213.41
2023-07-11T16:34:30.891Z,95210.47
2023-07-11T16:37:02.852Z,95211.44
2023-07-11T16:39:34.919Z,95203.72
2023-07-11T16:42:19.497Z,95200.44
2023-07-11T16:44:51.091Z,95193.13
2023-07-11T16:47:25.599Z,95189.56
2023-07-11T16:49:57.713Z,95189.59
2023-07-11T16:52:29.251Z,95189.03
2023-07-11T16:55:01.005Z,95186.06
2023-07-11T16:57:32.663Z,95190.59
2023-07-11T17:00:05.898Z,95179.94
2023-07-11T17:02:37.607Z,95181.28
2023-07-11T17:05:09.665Z,95171.13
2023-07-11T17:07:41.752Z,95177.69
2023-07-11T17:10:14.172Z,95176.06
2023-07-11T17:12:45.956Z,95179.59
2023-07-11T17:15:19.045Z,95173.19
2023-07-11T17:17:50.870Z,95173.63
2023-07-11T17:20:22.472Z,95175.09
2023-07-11T17:22:54.111Z,95187.69
2023-07-11T17:25:25.769Z,95188.91
2023-07-11T17:27:57.774Z,95185.09
2023-07-11T17:30:29.374Z,95189.03
2023-07-11T17:33:00.992Z,95180.13
2023-07-11T17:35:32.584Z,95171.63
2023-07-11T17:38:05.142Z,95189.19
2023-07-11T17:40:36.717Z,95182.50
2023-07-11T17:43:19.968Z,95171.09
2023-07-11T17:46:01.341Z,95174.50
2023-07-11T17:48:44.250Z,95178.38
2023-07-11T17:51:16.944Z,95172.84
2023-07-11T17:53:49.972Z,95171.88
2023-07-11T17:56:21.508Z,95174.94
2023-07-11T17:58:53.628Z,95162.81
2023-07-11T18:01:26.337Z,95164.53
2023-07-11T18:03:58.007Z,95147.56
2023-07-11T18:06:29.654Z,95146.09
2023-07-11T18:09:01.260Z,95136.16
2023-07-11T18:11:33.068Z,95124.78
2023-07-11T18:14:06.610Z,95128.81
2023-07-11T18:16:38.554Z,95116.63
2023-07-11T18:19:10.979Z,95114.66
2023-07-11T18:21:42.518Z,95103.31
2023-07-11T18:24:14.112Z,95092.56
2023-07-11T18:26:45.643Z,95080.06
2023-07-11T18:29:17.185Z,95073.50
2023-07-11T18:31:48.848Z,95064.22
2023-07-11T18:34:21.589Z,95067.84
2023-07-11T18:36:53.870Z,95064.16
2023-07-11T18:39:26.449Z,95057.06
2023-07-11T18:41:58.867Z,95059.47
2023-07-11T18:44:30.461Z,95056.41
2023-07-11T18:47:02.022Z,95060.09
2023-07-11T18:49:33.582Z,95053.47
2023-07-11T18:52:09.276Z,95059.88
2023-07-11T18:54:40.882Z,95056.03
2023-07-11T18:57:16.761Z,95051.63
2023-07-11T18:59:48.765Z,95053.72
2023-07-11T19:02:25.034Z,95061.09
2023-07-11T19:04:59.738Z,95065.69
2023-07-11T19:07:34.073Z,95074.53
2023-07-11T19:10:16.977Z,95066.56
2023-07-11T19:12:49.350Z,95046.31
2023-07-11T19:15:26.434Z,95039.38
2023-07-11T19:18:03.155Z,95047.72
2023-07-11T19:20:40.095Z,95039.50
2023-07-11T19:23:21.300Z,95040.75
2023-07-11T19:25:54.732Z,95043.28
2023-07-11T19:28:31.617Z,95034.34
2023-07-11T19:31:03.540Z,95027.63
2023-07-11T19:33:35.169Z,95020.16
2023-07-11T19:36:15.413Z,95027.16
2023-07-11T19:38:47.060Z,95034.66
2023-07-11T19:41:20.436Z,95032.66
2023-07-11T19:43:51.997Z,95032.16
2023-07-11T19:46:23.686Z,95027.41
2023-07-11T19:48:56.314Z,95024.69
2023-07-11T19:51:27.837Z,95035.44
2023-07-11T19:53:59.216Z,95037.19
2023-07-11T19:56:30.955Z,95028.16
2023-07-11T19:59:03.689Z,95024.69
2023-07-11T20:01:35.409Z,95016.16
2023-07-11T20:04:06.924Z,95010.91
2023-07-11T20:06:38.578Z,95010.66
2023-07-11T20:09:10.100Z,95014.91
2023-07-11T20:11:41.666Z,95025.88
2023-07-11T20:14:13.062Z,95023.63
2023-07-11T20:16:44.793Z,95031.09
2023-07-11T20:19:16.401Z,95026.59
2023-07-11T20:21:47.822Z,95015.34
2023-07-11T20:24:19.325Z,95023.06
2023-07-11T20:26:51.057Z,95020.53
2023-07-11T20:29:22.642Z,95020.25
2023-07-11T20:31:54.040Z,95023.75
2023-07-11T20:34:25.600Z,95006.25
2023-07-11T20:36:57.037Z,94992.03
2023-07-11T20:39:28.563Z,94979.31
2023-07-11T20:42:00.029Z,94984.25
2023-07-11T20:44:31.563Z,94985.25
2023-07-11T20:47:04.145Z,94996.44
2023-07-11T20:49:37.162Z,95007.19
2023-07-11T20:52:12.125Z,95003.69
2023-07-11T20:54:43.745Z,95011.38
2023-07-11T20:57:15.496Z,95002.66
2023-07-11T20:59:49.138Z,95005.38
2023-07-11T21:02:20.724Z,95003.63
2023-07-11T21:04:52.095Z,95008.09
2023-07-11T21:07:25.166Z,95004.59
2023-07-11T21:09:58.433Z,95000.84
2023-07-11T21:12:30.108Z,95004.53
2023-07-11T21:15:01.646Z,94997.06
2023-07-11T21:17:33.976Z,95009.28
2023-07-11T21:20:06.917Z,95008.28
2023-07-11T21:22:38.825Z,95014.25
2023-07-11T21:25:10.874Z,95032.69
2023-07-11T21:27:42.442Z,95050.41
2023-07-11T21:30:24.032Z,95061.38
2023-07-11T21:32:56.069Z,95088.50
2023-07-11T21:35:28.362Z,95134.63
2023-07-11T21:38:00.486Z,95327.88
2023-07-11T21:40:36.967Z,95542.72
2023-07-11T21:43:09.103Z,95468.09
2023-07-11T21:45:41.335Z,95554.72
2023-07-11T21:50:54.444Z,95576.63
2023-07-11T21:53:31.240Z,66607.47
2023-07-11T21:56:15.867Z,66607.47
2023-07-11T21:58:47.949Z,66607.47
2023-07-11T22:01:21.030Z,66607.47
2023-07-11T22:03:52.896Z,66607.47
2023-07-11T22:06:28.289Z,66607.47
2023-07-11T22:09:00.146Z,66607.47
2023-07-11T22:11:31.735Z,66607.47
2023-07-11T22:14:06.437Z,66607.47
2023-07-11T22:16:38.355Z,66607.47
2023-07-11T22:19:13.755Z,66607.47
2023-07-11T22:21:47.870Z,66607.47
2023-07-11T22:24:19.478Z,66607.47
2023-07-11T22:26:51.125Z,66607.47
2023-07-11T22:29:22.728Z,66607.47
2023-07-11T22:31:55.011Z,66607.47
2023-07-11T22:34:26.627Z,66607.47
2023-07-11T22:36:58.157Z,66607.47
2023-07-11T22:39:29.774Z,66607.47
2023-07-11T22:42:02.463Z,66607.47
2023-07-11T22:44:33.980Z,66607.47
2023-07-11T22:47:06.124Z,66607.47
2023-07-11T22:49:37.708Z,66607.47
2023-07-11T22:52:09.313Z,66607.47
2023-07-11T22:54:41.108Z,66607.47
2023-07-11T22:57:12.736Z,66607.47
2023-07-11T22:59:44.240Z,66607.47
2023-07-11T23:02:16.044Z,66607.47
2023-07-11T23:04:47.629Z,66607.47
2023-07-11T23:07:19.215Z,66607.47
2023-07-11T23:09:50.784Z,66607.47
2023-07-11T23:12:22.545Z,66607.47
2023-07-11T23:14:54.147Z,66607.47
2023-07-11T23:17:25.825Z,66607.47
2023-07-11T23:19:57.572Z,66607.47
2023-07-11T23:22:30.002Z,66607.47
2023-07-11T23:25:04.113Z,66607.47
2023-07-11T23:27:35.673Z,66607.47
2023-07-11T23:30:15.687Z,66607.47
2023-07-11T23:32:49.049Z,66607.47
2023-07-11T23:35:24.309Z,66607.47
2023-07-11T23:37:57.747Z,66607.47
2023-07-11T23:40:46.518Z,66607.47
2023-07-11T23:43:20.033Z,66607.47
2023-07-11T23:45:53.281Z,66607.47
2023-07-11T23:48:27.447Z,66607.47
2023-07-11T23:51:01.793Z,66607.47
2023-07-11T23:53:33.412Z,66607.47
2023-07-11T23:56:25.331Z,66607.47
2023-07-11T23:58:57.964Z,66607.47
